ADDS METAR Data INFO
IDs: Format: Raw Decoded Include TAF

Data at: 2055 UTC 26 May 2017

Region: TOP
KATL 262052Z 26008KT 10SM FEW050 FEW250 28/15 A3000 RMK AO2 SLP151 T02830150 58019

KBOS 261954Z 28010G18KT 10SM -RA FEW012 SCT026 OVC070 14/11 A2958 RMK AO2 RAB26 SLP016 P0000 T01440111

KBWI 261954Z 27015G27KT 10SM SCT048 BKN070 23/14 A2975 RMK AO2 PK WND 28028/1926 SLP072 T02330144

KCLE 262051Z 29011KT 10SM SCT039 BKN150 BKN250 20/11 A2989 RMK AO2 SLP119 T02000111 58004

KCLT 262052Z 23008KT 10SM FEW250 27/12 A2993 RMK AO2 SLP130 T02670117 58013

KCVG 262052Z 21010KT 10SM FEW050 FEW180 26/14 A2987 RMK AO2 SLP110 T02560139 56012

KDCA 262052Z 29016G24KT 10SM BKN065 BKN075 24/12 A2979 RMK AO2 SLP086 T02390117 53008

KDEN 262053Z 08010KT 10SM FEW015 SCT065 SCT110 BKN220 20/10 A2984 RMK AO2 LTG DSNT NE AND E RAB1958E08 TSE08 SLP052 OCNL LTGICCG DSNT NE TS MOV NE P0000 60000 T02000100 56026

KDFW 262053Z 19019G24KT 10SM FEW042 BKN300 35/23 A2974 RMK AO2 PK WND 19027/2025 SLP061 T03500233 56006

KDTW 262053Z 31007KT 10SM FEW030 SCT050 BKN220 20/11 A2986 RMK AO2 SLP109 T02000111 55003

KEWR 262051Z 28013G18KT 10SM FEW045 BKN060 BKN095 BKN250 23/12 A2963 RMK AO2 SLP033 60000 T02330122 51011

KFLL 262053Z 08009KT 10SM FEW035 FEW250 29/23 A3000 RMK AO2 SLP157 CB DSNT SW MOV E T02890228 56015

KIAD 262052Z 29026G34KT 10SM SCT050 SCT090 BKN250 24/11 A2979 RMK AO2 PK WND 28035/2039 SLP085 T02390111 53004

KIAH 262053Z 18012KT 10SM BKN035 OVC040 32/23 A2987 RMK AO2 SLP113 T03170228 56012

KJFK 262051Z 29012G24KT 10SM FEW050 FEW075 BKN100 BKN250 24/13 A2963 RMK AO2 SLP034 T02390128 51011

KLAS 261956Z VRB06KT 10SM CLR 30/M06 A2976 RMK AO2 SLP051 T03001056

KLAX 262053Z 24010KT 9SM SCT042 BKN050 19/12 A3000 RMK AO2 SLP159 T01940122 51005

KLGA 262051Z 29013KT 10SM FEW050 BKN095 23/11 A2962 RMK AO2 SLP029 T02330111 51012

KMCO 262053Z 27007KT 240V300 10SM CLR 31/12 A3000 RMK AO2 SLP156 T03060122 56018

KMDW 262053Z 07010KT 8SM -RA BKN075 OVC100 18/12 A2979 RMK AO2 LTG DSNT SW RAB38 SLP087 P0000 60000 T01830122 58007

KMEM 261954Z 20018G27KT 10SM BKN046 28/19 A2986 RMK AO2 PK WND 21030/1923 SLP108 T02830189

KMIA 262053Z 15009KT 10SM SCT030 SCT065 BKN250 31/23 A3001 RMK AO2 LTG DSNT S AND SW TSE18 SLP163 CB DSNT S-W 60017 T03060233 56009

KMSP 262053Z 24007KT 10SM BKN050TCU 26/12 A2972 RMK AO2 SLP061 TCU ALQDS T02560122 58005

KORD 262051Z 07010KT 6SM RA BKN060 OVC075 18/12 A2980 RMK AO2 RAB30 SLP089 P0001 60001 T01780122 58007

KPDX 262053Z 28007KT 10SM FEW030 26/07 A2993 RMK AO2 SLP133 T02560072 58007

KPHL 261954Z 28015G21KT 10SM SCT055 SCT070 BKN090 24/12 A2969 RMK AO2 RAE22 SLP052 P0000 T02390122

KPHX 262051Z 23012G18KT 10SM CLR 34/M06 A2980 RMK AO2 SLP072 T03391061 58008

KPIT 262051Z 28013KT 10SM FEW035 SCT046 BKN055 19/13 A2986 RMK AO2 SLP114 T01940128 50001

KSAN 262051Z 25011KT 10SM FEW040 BKN050 21/11 A3002 RMK AO2 SLP165 T02110106 50003

KSEA 262053Z 31007G15KT 10SM FEW045 24/11 A2997 RMK AO2 SLP152 T02390106 58003

KSFO 261956Z 19013KT 10SM OVC030 16/09 A2999 RMK AO2 SLP156 T01610089

KSLC 261954Z 36007G16KT 10SM FEW065 SCT110 19/04 A2989 RMK AO2 SLP088 VIRGA DSNT E-SE TCU DSNT NW-NE T01890044

KSTL 262051Z 18008KT 150V210 10SM OVC037 27/18 A2974 RMK AO2 SLP062 T02720183 51003

KTPA 262053Z 26011KT 10SM FEW055 29/15 A3004 RMK AO2 SLP170 T02890150 56008


Page loaded:  20:55 UTC  |   01:55 PM Pacific  |   02:55 PM Mountain  |   03:55 PM Central  |   04:55 PM Eastern

 

ADVISORIES

FORECASTS

FORECASTS

OBSERVATIONS

USER TOOLS

ABOUT US